Terminal Aerodrome Forecast
Issued by NWS

Current Version | Previous Version | Text Only | Print | Product List | Glossary On
Versions: 1 2 3 4 5 6 7 8 9 10 11 12 13 14 15 16 17 18 19 20 21 22 23 24 25 26 27 28 29 30
000
FTAK31 PANC 171740
TAFAIL
TAF
PAIL 171740Z 1718/1818 08015G25KT P6SM -RA BKN050 OVC080
     FM172100 09013KT P6SM -SHRA SCT035 OVC050=

USA.gov is the U.S. government's official web portal to all federal, state and local government web resources and services.